Time;durP1;ratioP1;P1;durP2;ratioP2;P2;SDS_P1;SDS_P2;PMS_P1;PMS_P2;Temp;Humidity;BMP_temperature;BMP_pressure;BME280_temperature;BME280_humidity;BME280_pressure;Samples;Min_cycle;Max_cycle;Signal;HPM_P1;HPM_P2
2022/11/25 00:02:12;;;;;;;9.98;2.22;;;9.90;72.40;;;;;;4984861;28;20042;-82
2022/11/25 00:04:57;;;;;;;9.98;2.78;;;9.90;72.40;;;;;;4973272;28;20037;-82
2022/11/25 00:07:42;;;;;;;10.77;2.67;;;9.90;72.40;;;;;;4980395;28;20053;-82
2022/11/25 00:10:26;;;;;;;10.80;2.25;;;9.90;72.50;;;;;;4987487;28;20517;-82
2022/11/25 00:13:11;;;;;;;9.48;3.00;;;9.90;72.50;;;;;;4987655;28;20126;-82
2022/11/25 00:15:59;;;;;;;9.02;2.80;;;9.90;72.50;;;;;;4974223;28;20093;-82
2022/11/25 00:18:49;;;;;;;8.60;2.17;;;9.90;72.50;;;;;;4984860;28;20108;-81
2022/11/25 00:21:33;;;;;;;9.65;2.83;;;9.80;72.30;;;;;;4981661;28;20046;-84
2022/11/25 00:24:18;;;;;;;10.45;2.30;;;9.90;72.50;;;;;;4977356;28;20050;-84
2022/11/25 00:27:03;;;;;;;9.05;2.10;;;9.80;72.40;;;;;;4984409;28;20069;-83
2022/11/25 00:29:48;;;;;;;9.70;2.42;;;9.80;72.30;;;;;;4980892;28;20535;-84
2022/11/25 00:32:32;;;;;;;4.93;1.92;;;9.80;72.30;;;;;;4986636;28;20402;-84
2022/11/25 00:35:17;;;;;;;10.07;2.20;;;9.80;72.30;;;;;;4978141;28;20042;-84
2022/11/25 00:38:02;;;;;;;8.45;2.17;;;9.80;72.30;;;;;;4980048;28;20032;-84
2022/11/25 00:44:34;;;;;;;5.65;1.88;;;9.80;72.30;;;;;;4985461;28;20096;-84
2022/11/25 00:47:16;;;;;;;7.72;2.63;;;9.80;72.40;;;;;;4985642;28;20406;-83
2022/11/25 00:50:00;;;;;;;7.88;1.77;;;9.80;72.30;;;;;;4986123;28;20049;-83
2022/11/25 00:52:45;;;;;;;9.65;2.53;;;9.80;72.30;;;;;;4984464;28;20101;-84
2022/11/25 00:56:11;;;;;;;9.88;2.72;;;9.90;72.50;;;;;;4981155;28;20081;-83
2022/11/25 00:58:34;;;;;;;5.35;1.70;;;9.90;72.50;;;;;;4987696;28;20077;-83
2022/11/25 01:01:19;;;;;;;10.43;2.10;;;9.90;72.50;;;;;;4978640;28;20033;-83
2022/11/25 01:04:05;;;;;;;11.95;2.85;;;9.90;72.50;;;;;;4986270;28;20548;-83
2022/11/25 01:06:50;;;;;;;11.50;3.80;;;9.90;73.00;;;;;;4971515;28;20141;-88
2022/11/25 01:09:35;;;;;;;8.50;2.20;;;9.90;72.50;;;;;;4982798;28;20049;-84
2022/11/25 01:12:21;;;;;;;11.05;2.58;;;9.90;72.50;;;;;;4982513;28;20044;-85
2022/11/25 01:15:09;;;;;;;8.23;2.13;;;10.00;72.60;;;;;;4982650;28;20386;-86
2022/11/25 01:17:53;;;;;;;15.85;3.65;;;10.00;72.60;;;;;;4977556;28;20093;-84
2022/11/25 01:20:38;;;;;;;9.65;2.10;;;10.00;72.60;;;;;;4982495;28;20041;-86
2022/11/25 01:23:22;;;;;;;12.23;3.28;;;10.00;72.60;;;;;;4986025;28;20066;-85
2022/11/25 01:26:12;;;;;;;9.30;2.20;;;10.00;72.60;;;;;;4976108;28;20053;-85
2022/11/25 01:28:59;;;;;;;9.82;2.75;;;10.00;72.60;;;;;;4986437;28;20042;-84
2022/11/25 01:31:44;;;;;;;14.25;2.97;;;10.10;72.80;;;;;;4984217;28;20080;-84
2022/11/25 01:34:31;;;;;;;11.00;2.90;;;10.10;72.80;;;;;;4980905;28;20041;-84
2022/11/25 01:37:15;;;;;;;13.02;3.67;;;10.10;72.80;;;;;;4981510;28;20429;-83
2022/11/25 01:40:01;;;;;;;13.18;2.83;;;10.00;72.70;;;;;;4983436;28;20494;-84
2022/11/25 01:42:47;;;;;;;13.15;3.63;;;10.00;72.80;;;;;;4983594;28;20050;-83
2022/11/25 01:45:36;;;;;;;11.15;4.15;;;10.10;72.90;;;;;;4981922;28;20105;-89
2022/11/25 01:48:26;;;;;;;10.98;3.08;;;10.10;73.00;;;;;;4975753;28;20065;-87
2022/11/25 01:51:49;;;;;;;16.00;4.18;;;10.10;73.00;;;;;;4978363;28;20100;-89
2022/11/25 01:54:42;;;;;;;15.48;3.63;;;10.10;73.00;;;;;;4986618;28;20399;-89
2022/11/25 01:57:36;;;;;;;12.20;3.25;;;10.10;72.90;;;;;;4972863;28;20041;-89
2022/11/25 02:00:21;;;;;;;12.90;3.10;;;10.20;73.10;;;;;;4984254;28;20140;-90
2022/11/25 02:03:06;;;;;;;13.00;2.50;;;10.20;73.10;;;;;;4970948;28;20049;-87
2022/11/25 02:06:09;;;;;;;9.82;2.85;;;10.20;73.00;;;;;;4984342;28;20662;-85
2022/11/25 02:08:59;;;;;;;9.40;2.73;;;10.20;73.10;;;;;;4986249;28;20044;-86
2022/11/25 02:11:44;;;;;;;12.25;2.92;;;10.20;73.10;;;;;;4982015;28;20145;-85
2022/11/25 02:14:28;;;;;;;14.00;3.17;;;10.20;73.10;;;;;;4986397;28;20117;-85
2022/11/25 02:17:13;;;;;;;16.67;4.65;;;10.20;73.10;;;;;;4982208;28;20241;-84
2022/11/25 02:20:04;;;;;;;13.70;3.13;;;10.20;73.60;;;;;;4985907;28;20073;-84
2022/11/25 02:22:59;;;;;;;12.98;2.70;;;10.20;73.20;;;;;;4980297;28;20074;-83
2022/11/25 02:25:45;;;;;;;13.10;3.67;;;10.20;73.20;;;;;;4974589;28;20092;-83
2022/11/25 02:28:33;;;;;;;12.93;3.15;;;10.20;73.20;;;;;;4983250;28;20054;-83
2022/11/25 02:31:22;;;;;;;12.20;2.85;;;10.30;73.40;;;;;;4967890;28;20113;-83
2022/11/25 02:34:08;;;;;;;15.93;4.15;;;10.20;73.20;;;;;;4984056;28;20116;-82
2022/11/25 02:36:53;;;;;;;13.50;2.97;;;10.20;73.20;;;;;;4971203;28;20556;-82
2022/11/25 02:39:37;;;;;;;14.25;3.33;;;10.20;73.20;;;;;;4984216;28;20089;-79
2022/11/25 02:42:26;;;;;;;17.08;3.13;;;10.30;73.40;;;;;;4984828;28;20045;-83
2022/11/25 02:45:14;;;;;;;15.70;2.85;;;10.30;73.50;;;;;;4971028;28;20049;-82
2022/11/25 02:47:59;;;;;;;12.52;5.03;;;10.30;73.50;;;;;;4984396;28;20069;-83
2022/11/25 02:50:44;;;;;;;11.75;2.95;;;10.20;73.30;;;;;;4989227;28;20050;-82
2022/11/25 02:53:29;;;;;;;11.77;2.80;;;10.30;73.50;;;;;;4987070;28;20069;-82
2022/11/25 02:56:17;;;;;;;20.88;3.05;;;10.30;73.50;;;;;;4987593;28;20414;-81
2022/11/25 02:59:02;;;;;;;13.23;3.42;;;10.30;73.50;;;;;;4987720;28;20520;-82
2022/11/25 03:01:47;;;;;;;16.70;3.30;;;10.30;73.50;;;;;;4984882;28;20505;-82
2022/11/25 03:04:32;;;;;;;13.32;3.25;;;10.30;73.50;;;;;;4987952;28;20049;-82
2022/11/25 03:07:16;;;;;;;14.77;2.88;;;10.30;73.50;;;;;;4986827;28;20096;-82
2022/11/25 03:10:01;;;;;;;8.52;2.75;;;10.30;73.40;;;;;;4983198;28;20041;-82
2022/11/25 03:12:46;;;;;;;11.60;3.05;;;10.30;73.40;;;;;;4983476;28;20524;-82
2022/11/25 03:15:31;;;;;;;11.30;3.95;;;10.40;73.60;;;;;;4967545;28;20041;-81
2022/11/25 03:18:17;;;;;;;11.73;3.22;;;10.40;73.60;;;;;;4987423;28;20100;-82
2022/11/25 03:21:02;;;;;;;9.13;2.65;;;10.40;74.20;;;;;;4986415;28;20497;-81
2022/11/25 03:23:47;;;;;;;14.70;3.63;;;10.40;73.60;;;;;;4984604;28;20060;-84
2022/11/25 03:26:32;;;;;;;9.77;2.83;;;10.40;73.60;;;;;;4987094;28;20097;-82
2022/11/25 03:29:16;;;;;;;9.68;2.85;;;10.40;73.70;;;;;;4977062;28;20037;-82
2022/11/25 03:32:03;;;;;;;20.27;3.55;;;10.40;73.60;;;;;;4978380;28;20077;-86
2022/11/25 03:34:48;;;;;;;8.57;2.05;;;10.40;73.60;;;;;;4987055;28;20044;-82
2022/11/25 03:37:33;;;;;;;9.63;4.10;;;10.40;73.60;;;;;;4986316;28;20557;-84
2022/11/25 03:40:17;;;;;;;9.98;2.42;;;10.50;73.80;;;;;;4982814;28;20097;-84
2022/11/25 03:43:03;;;;;;;10.05;2.83;;;10.50;73.80;;;;;;4991390;28;20150;-83
2022/11/25 03:45:49;;;;;;;10.30;2.25;;;10.50;73.80;;;;;;4986742;28;20205;-83
2022/11/25 03:48:34;;;;;;;9.95;2.42;;;10.50;73.70;;;;;;4992186;28;20442;-83
2022/11/25 03:51:19;;;;;;;10.93;1.95;;;10.50;73.70;;;;;;4980870;28;20084;-83
2022/11/25 03:54:05;;;;;;;9.77;2.35;;;10.50;73.70;;;;;;4990116;28;20100;-83
2022/11/25 03:57:08;;;;;;;8.70;1.73;;;10.40;73.50;;;;;;4995180;28;20073;-83
2022/11/25 03:59:53;;;;;;;7.35;1.77;;;10.40;73.50;;;;;;4993641;28;20057;-83
2022/11/25 04:02:37;;;;;;;8.70;2.30;;;10.40;73.50;;;;;;4994608;28;20545;-83
2022/11/25 04:05:22;;;;;;;5.85;1.55;;;10.30;73.40;;;;;;4993261;28;20057;-83
2022/11/25 04:08:07;;;;;;;6.47;1.55;;;10.30;73.40;;;;;;4994622;28;20053;-83
2022/11/25 04:10:53;;;;;;;8.77;2.28;;;10.30;73.50;;;;;;4991248;28;20061;-81
2022/11/25 04:13:41;;;;;;;9.88;1.40;;;10.20;73.30;;;;;;4981033;28;20085;-82
2022/11/25 04:16:26;;;;;;;5.45;1.50;;;10.10;73.20;;;;;;4985288;28;20126;-82
2022/11/25 04:19:12;;;;;;;6.35;1.30;;;10.10;73.20;;;;;;4994592;28;20048;-82
2022/11/25 04:22:00;;;;;;;5.28;1.45;;;10.10;73.80;;;;;;4990245;28;20046;-82
2022/11/25 04:24:45;;;;;;;7.38;1.20;;;10.00;73.20;;;;;;4999422;28;20048;-82
2022/11/25 04:27:33;;;;;;;3.47;1.08;;;9.90;73.10;;;;;;4991827;28;20182;-83
2022/11/25 04:30:18;;;;;;;4.80;1.27;;;9.90;73.20;;;;;;4981857;28;20666;-81
2022/11/25 04:33:02;;;;;;;7.22;1.95;;;9.90;73.20;;;;;;4995237;28;20084;-81
2022/11/25 04:35:47;;;;;;;3.72;1.13;;;9.80;73.10;;;;;;4972156;28;20227;-81
2022/11/25 04:38:32;;;;;;;4.28;1.00;;;9.70;72.90;;;;;;5002890;28;20046;-82
2022/11/25 04:41:17;;;;;;;5.05;0.90;;;9.70;73.00;;;;;;4973675;28;20041;-81
2022/11/25 04:44:03;;;;;;;2.30;1.00;;;9.70;73.00;;;;;;4979068;28;20057;-82
2022/11/25 04:46:47;;;;;;;3.45;0.77;;;9.60;72.80;;;;;;4977578;28;20065;-81
2022/11/25 04:49:32;;;;;;;2.95;0.82;;;9.60;72.90;;;;;;4989807;28;20976;-82
2022/11/25 04:52:17;;;;;;;3.00;0.88;;;9.50;72.80;;;;;;4988573;28;20068;-81
2022/11/25 04:55:02;;;;;;;4.38;1.13;;;9.40;72.70;;;;;;4990527;28;20167;-81
2022/11/25 04:57:46;;;;;;;4.95;1.08;;;9.40;72.70;;;;;;4975941;28;20142;-81
2022/11/25 05:00:33;;;;;;;6.45;1.13;;;9.30;72.60;;;;;;4989537;28;20085;-81
2022/11/25 05:03:18;;;;;;;4.50;1.60;;;9.30;72.70;;;;;;4988992;28;20111;-81
2022/11/25 05:06:07;;;;;;;9.00;2.08;;;9.30;72.70;;;;;;4974850;28;20048;-81
2022/11/25 05:08:54;;;;;;;5.68;1.27;;;9.20;72.60;;;;;;4989638;28;20061;-81
2022/11/25 05:11:41;;;;;;;8.25;2.35;;;9.20;72.70;;;;;;4967791;28;20041;-81
2022/11/25 05:14:25;;;;;;;7.85;1.63;;;9.20;72.70;;;;;;4989151;28;20397;-81
2022/11/25 05:17:14;;;;;;;7.82;1.95;;;9.20;72.80;;;;;;4984347;28;20548;-81
2022/11/25 05:19:59;;;;;;;7.93;1.58;;;9.20;72.90;;;;;;4988350;28;20489;-80
2022/11/25 05:22:44;;;;;;;6.75;1.55;;;9.10;72.70;;;;;;4977152;28;20080;-80
2022/11/25 05:25:34;;;;;;;5.93;1.50;;;9.10;72.80;;;;;;4991592;28;20525;-81
2022/11/25 05:28:57;;;;;;;10.73;2.47;;;9.20;73.00;;;;;;4981500;28;20086;-81
2022/11/25 05:31:41;;;;;;;6.53;1.67;;;9.20;72.90;;;;;;4993921;28;20045;-81
2022/11/25 05:34:26;;;;;;;8.75;1.48;;;9.20;72.90;;;;;;4995720;28;20045;-81
2022/11/25 05:37:13;;;;;;;9.23;2.75;;;9.20;73.00;;;;;;5005689;28;20092;-81
2022/11/25 05:40:04;;;;;;;6.35;1.65;;;9.20;73.00;;;;;;5004059;28;20077;-81
2022/11/25 05:42:51;;;;;;;9.27;2.80;;;9.20;73.00;;;;;;5005100;28;20126;-80
2022/11/25 05:45:38;;;;;;;5.53;1.95;;;9.20;73.00;;;;;;4992942;28;20683;-80
2022/11/25 05:48:25;;;;;;;8.05;2.00;;;9.10;72.90;;;;;;4980225;28;20434;-81
2022/11/25 05:51:10;;;;;;;10.70;2.25;;;9.10;73.00;;;;;;4976510;28;20061;-81
2022/11/25 05:53:55;;;;;;;11.98;2.53;;;9.10;73.00;;;;;;4972931;28;20045;-80
2022/11/25 05:56:44;;;;;;;6.55;2.00;;;9.00;72.90;;;;;;4973498;28;20658;-80
2022/11/25 05:59:37;;;;;;;6.43;1.95;;;9.00;72.90;;;;;;4973421;28;20085;-80
2022/11/25 06:02:26;;;;;;;6.75;2.00;;;9.00;72.90;;;;;;4982932;28;20049;-80
2022/11/25 06:05:10;;;;;;;7.43;1.67;;;8.90;72.80;;;;;;4982224;28;20153;-79
2022/11/25 06:07:55;;;;;;;6.00;1.48;;;8.90;72.80;;;;;;4980505;28;20458;-80
2022/11/25 06:10:40;;;;;;;7.18;2.15;;;8.90;72.90;;;;;;4984992;28;20064;-80
2022/11/25 06:13:26;;;;;;;5.95;1.52;;;8.80;72.80;;;;;;4985113;28;20100;-81
2022/11/25 06:16:14;;;;;;;6.85;2.22;;;8.80;72.80;;;;;;4980340;28;20049;-80
2022/11/25 06:19:04;;;;;;;8.48;1.55;;;8.70;72.70;;;;;;4980818;28;20113;-81
2022/11/25 06:21:48;;;;;;;4.40;1.63;;;8.70;72.70;;;;;;4979376;28;20045;-81
2022/11/25 06:24:33;;;;;;;8.88;2.08;;;8.70;72.80;;;;;;4984818;28;20045;-80
2022/11/25 06:27:22;;;;;;;5.35;1.85;;;8.60;72.60;;;;;;4984616;28;20073;-81
2022/11/25 06:30:08;;;;;;;6.10;1.75;;;8.60;72.70;;;;;;4985876;28;20573;-80
2022/11/25 06:32:53;;;;;;;7.05;1.95;;;8.50;72.60;;;;;;4983139;28;20049;-80
2022/11/25 06:35:40;;;;;;;6.63;1.90;;;8.50;72.60;;;;;;4977273;28;20073;-79
2022/11/25 06:38:25;;;;;;;6.35;1.50;;;8.50;72.60;;;;;;4969870;28;20489;-81
2022/11/25 06:41:10;;;;;;;6.50;2.38;;;8.40;72.50;;;;;;4985071;28;20073;-83
2022/11/25 06:43:55;;;;;;;7.80;2.10;;;8.40;72.50;;;;;;4988138;28;20222;-87
2022/11/25 06:46:40;;;;;;;10.38;2.25;;;8.30;72.40;;;;;;4974575;28;20093;-83
2022/11/25 06:49:24;;;;;;;8.05;1.80;;;8.30;72.40;;;;;;4970562;28;20713;-90
2022/11/25 06:52:09;;;;;;;7.50;1.85;;;8.20;72.30;;;;;;4988511;28;20061;-89
2022/11/25 06:54:53;;;;;;;5.57;2.15;;;8.20;72.30;;;;;;4982288;28;20045;-85
2022/11/25 06:57:38;;;;;;;9.43;2.22;;;8.20;72.50;;;;;;4979002;28;20138;-88
2022/11/25 07:00:22;;;;;;;7.13;2.30;;;8.20;72.60;;;;;;4986679;28;20110;-86
2022/11/25 07:03:07;;;;;;;8.07;2.33;;;8.20;72.60;;;;;;4978892;28;20176;-89
2022/11/25 07:05:55;;;;;;;6.60;2.55;;;8.20;72.60;;;;;;4982461;28;20545;-89
2022/11/25 07:08:41;;;;;;;6.43;2.70;;;8.10;72.50;;;;;;4983358;28;20100;-87
2022/11/25 07:11:28;;;;;;;9.30;3.17;;;8.00;72.40;;;;;;4978674;28;20497;-85
2022/11/25 07:14:15;;;;;;;5.60;2.10;;;8.00;72.50;;;;;;4970002;28;20072;-90
2022/11/25 07:16:59;;;;;;;3.17;1.65;;;8.00;72.50;;;;;;4993212;28;20244;-87
2022/11/25 07:19:44;;;;;;;5.03;2.08;;;8.00;72.60;;;;;;4981758;28;20104;-83
2022/11/25 07:22:28;;;;;;;9.20;2.70;;;8.00;72.70;;;;;;4983011;28;20088;-85
2022/11/25 07:25:13;;;;;;;5.63;2.45;;;8.00;72.70;;;;;;4981187;28;20221;-85
2022/11/25 07:27:58;;;;;;;10.02;2.78;;;8.00;72.70;;;;;;4985229;28;20160;-81
2022/11/25 07:30:43;;;;;;;6.95;3.08;;;8.00;72.70;;;;;;4980001;28;20115;-88
2022/11/25 07:33:27;;;;;;;6.07;2.92;;;8.10;72.80;;;;;;4978561;28;20065;-84
2022/11/25 07:36:13;;;;;;;7.00;2.55;;;8.10;72.80;;;;;;4984755;28;20088;-90
2022/11/25 07:38:59;;;;;;;9.63;3.10;;;8.10;72.80;;;;;;4982080;28;20323;-95
2022/11/25 07:41:44;;;;;;;5.07;2.33;;;8.10;72.70;;;;;;4991238;28;20041;-94
2022/11/25 07:44:28;;;;;;;11.25;3.67;;;8.10;72.70;;;;;;4987254;28;20145;-83
2022/11/25 07:47:47;;;;;;;6.78;2.60;;;8.10;72.80;;;;;;4976194;28;20557;-95
2022/11/25 07:50:32;;;;;;;10.95;3.25;;;8.10;72.80;;;;;;4986125;28;20573;-81
2022/11/25 07:53:16;;;;;;;8.00;2.72;;;8.10;72.80;;;;;;4973227;28;20041;-83
2022/11/25 07:56:01;;;;;;;5.60;2.42;;;8.00;72.70;;;;;;4983701;28;20083;-93
2022/11/25 07:58:46;;;;;;;7.55;3.58;;;8.00;73.20;;;;;;4990398;28;20183;-91
2022/11/25 08:01:31;;;;;;;5.80;2.72;;;8.00;72.70;;;;;;4985917;28;20500;-88
2022/11/25 08:04:15;;;;;;;8.98;2.65;;;8.00;72.80;;;;;;4983680;28;20323;-86
2022/11/25 08:07:00;;;;;;;4.97;2.30;;;8.10;72.90;;;;;;4983724;28;20049;-91
2022/11/25 08:09:44;;;;;;;6.38;2.35;;;8.10;72.90;;;;;;4985731;28;20088;-86
2022/11/25 08:12:31;;;;;;;6.38;2.75;;;8.10;72.90;;;;;;4984332;28;20377;-87
2022/11/25 08:15:15;;;;;;;9.40;4.05;;;8.10;72.90;;;;;;4982434;28;20126;-95
2022/11/25 08:18:00;;;;;;;4.53;2.22;;;8.20;73.10;;;;;;4979460;28;20543;-91
2022/11/25 08:20:45;;;;;;;6.97;2.17;;;8.20;72.90;;;;;;4986533;28;20519;-89
2022/11/25 08:23:30;;;;;;;6.80;2.75;;;8.30;73.10;;;;;;4978116;28;20093;-90
2022/11/25 08:26:19;;;;;;;8.65;2.33;;;8.30;73.00;;;;;;4989873;28;20308;-89
2022/11/25 08:29:05;;;;;;;6.72;2.15;;;8.40;73.10;;;;;;4979164;28;20499;-91
2022/11/25 08:31:50;;;;;;;7.65;3.83;;;8.40;73.10;;;;;;4986552;28;20041;-95
2022/11/25 08:34:35;;;;;;;9.32;2.60;;;8.40;73.00;;;;;;4985219;28;20153;-83
2022/11/25 08:37:22;;;;;;;6.65;2.20;;;8.40;73.00;;;;;;4976076;28;20042;-83
2022/11/25 08:40:07;;;;;;;5.80;2.28;;;8.40;73.00;;;;;;4989521;28;20072;-87
2022/11/25 08:42:52;;;;;;;5.82;3.45;;;8.40;73.00;;;;;;4984665;28;20073;-87
2022/11/25 08:45:38;;;;;;;5.05;2.53;;;8.40;73.00;;;;;;4983791;28;20226;-87
2022/11/25 08:48:23;;;;;;;6.53;2.28;;;8.40;73.00;;;;;;4975357;28;20360;-89
2022/11/25 08:51:10;;;;;;;9.68;2.67;;;8.50;73.20;;;;;;4972985;28;20465;-89
2022/11/25 08:53:55;;;;;;;7.20;2.92;;;8.40;73.00;;;;;;4990225;28;20045;-87
2022/11/25 08:56:40;;;;;;;11.15;2.90;;;8.50;73.10;;;;;;4973533;28;20113;-91
2022/11/25 08:59:24;;;;;;;8.38;3.28;;;8.50;73.10;;;;;;4986431;28;20097;-88
2022/11/25 09:02:13;;;;;;;7.10;3.78;;;8.50;73.00;;;;;;4976599;28;20037;-88
2022/11/25 09:04:57;;;;;;;7.30;3.35;;;8.50;73.00;;;;;;4989342;28;20038;-89
2022/11/25 09:07:42;;;;;;;8.50;3.63;;;8.50;73.00;;;;;;4986624;28;20414;-87
2022/11/25 09:10:26;;;;;;;6.35;3.58;;;8.50;73.00;;;;;;4985682;28;20088;-80
2022/11/25 09:13:11;;;;;;;4.43;3.17;;;8.50;73.00;;;;;;4979215;28;20497;-82
2022/11/25 09:15:56;;;;;;;8.85;4.47;;;8.50;73.00;;;;;;4986344;28;20088;-82
2022/11/25 09:18:41;;;;;;;5.00;3.85;;;8.50;73.00;;;;;;4986382;28;20057;-81
2022/11/25 09:21:25;;;;;;;5.80;4.28;;;8.50;73.00;;;;;;4983629;28;20122;-81
2022/11/25 09:24:10;;;;;;;7.45;4.25;;;8.50;73.00;;;;;;4975677;28;20049;-81
2022/11/25 09:26:55;;;;;;;7.13;3.85;;;8.50;73.00;;;;;;4987842;28;20046;-82
2022/11/25 09:29:39;;;;;;;8.20;4.05;;;8.60;73.10;;;;;;4984701;28;20860;-82
2022/11/25 09:32:24;;;;;;;7.43;3.58;;;8.60;73.10;;;;;;4994757;28;20025;-94
2022/11/25 09:35:09;;;;;;;6.60;3.55;;;8.70;73.20;;;;;;4995581;28;20064;-93
2022/11/25 09:37:54;;;;;;;8.80;3.88;;;8.70;73.20;;;;;;4983081;28;20509;-92
2022/11/25 09:40:58;;;;;;;10.20;3.70;;;8.70;73.20;;;;;;4979895;28;20116;-87
2022/11/25 09:47:30;;;;;;;9.27;3.33;;;8.90;73.30;;;;;;4992050;28;20069;-86
2022/11/25 09:50:28;;;;;;;11.10;2.75;;;9.00;73.30;;;;;;5005901;28;20072;-96
2022/11/25 09:53:27;;;;;;;7.28;2.72;;;9.00;73.20;;;;;;4984577;28;20061;-93
2022/11/25 09:56:33;;;;;;;8.57;3.00;;;9.10;73.30;;;;;;4992306;28;20053;-86
2022/11/25 09:59:23;;;;;;;10.65;2.53;;;9.10;73.30;;;;;;4986714;28;20311;-80
2022/11/25 10:02:19;;;;;;;6.43;1.90;;;9.20;73.40;;;;;;4988098;28;20089;-81
2022/11/25 10:05:47;;;;;;;9.80;2.35;;;9.20;73.40;;;;;;4987114;28;20185;-91
2022/11/25 10:08:39;;;;;;;12.32;2.83;;;9.20;73.40;;;;;;4977559;28;20120;-84
2022/11/25 10:11:44;;;;;;;8.02;2.15;;;9.30;73.50;;;;;;4960968;28;20049;-83
2022/11/25 10:14:48;;;;;;;5.95;2.05;;;9.30;73.40;;;;;;4981363;28;20057;-82
2022/11/25 10:17:50;;;;;;;8.90;2.20;;;9.40;73.60;;;;;;4972998;28;20045;-82
2022/11/25 10:20:38;;;;;;;8.35;2.25;;;9.40;73.50;;;;;;4981779;28;20042;-81
2022/11/25 10:23:34;;;;;;;8.57;2.50;;;9.50;73.70;;;;;;4978369;28;20117;-82
2022/11/25 10:26:23;;;;;;;8.00;2.42;;;9.50;73.70;;;;;;4984855;28;20084;-83
2022/11/25 10:29:13;;;;;;;10.05;2.83;;;9.50;73.70;;;;;;4969907;28;20561;-82
2022/11/25 10:32:16;;;;;;;14.80;3.17;;;9.60;73.80;;;;;;4983417;28;20068;-84
2022/11/25 10:35:11;;;;;;;7.78;2.28;;;9.70;74.00;;;;;;4975675;28;20118;-84
2022/11/25 10:37:58;;;;;;;8.30;3.70;;;9.70;73.90;;;;;;4984745;28;20121;-80
2022/11/25 10:40:45;;;;;;;13.20;2.28;;;9.70;73.90;;;;;;4987540;28;20080;-88
2022/11/25 10:43:36;;;;;;;13.95;4.28;;;9.80;74.00;;;;;;4981807;28;20541;-83
2022/11/25 10:46:35;;;;;;;6.88;2.92;;;9.80;74.00;;;;;;4977703;28;20062;-84
2022/11/25 10:49:36;;;;;;;11.32;2.58;;;9.90;74.20;;;;;;4986134;28;20085;-83
2022/11/25 10:52:22;;;;;;;10.77;2.30;;;9.90;74.20;;;;;;4984873;28;20304;-87
2022/11/25 10:55:14;;;;;;;8.85;2.13;;;10.00;74.30;;;;;;4980869;28;20503;-87
2022/11/25 10:58:24;;;;;;;12.88;4.05;;;10.00;74.30;;;;;;4987041;28;20041;-83
2022/11/25 11:01:21;;;;;;;10.73;3.58;;;10.00;74.30;;;;;;4973794;28;20609;-88
2022/11/25 11:04:13;;;;;;;10.25;1.90;;;10.10;74.40;;;;;;4988240;28;20057;-88
2022/11/25 11:07:07;;;;;;;8.57;2.00;;;10.10;74.40;;;;;;4987015;28;20100;-88
2022/11/25 11:09:52;;;;;;;;;;;10.20;74.60;;;;;;4986179;28;20050;-88
2022/11/25 11:12:36;;;;;;;7.28;2.10;;;10.20;74.40;;;;;;4988291;28;19920;-96
2022/11/25 11:15:25;;;;;;;12.15;2.47;;;10.30;74.40;;;;;;5005662;28;20049;-94
2022/11/25 11:18:23;;;;;;;6.47;1.80;;;10.40;74.60;;;;;;5007495;28;20025;-96
2022/11/25 11:21:34;;;;;;;11.30;2.10;;;10.40;74.60;;;;;;4995536;28;20045;-91
2022/11/25 11:24:36;;;;;;;8.07;1.85;;;10.50;74.60;;;;;;5003417;28;20033;-92
2022/11/25 11:27:24;;;;;;;7.78;2.05;;;10.50;74.60;;;;;;4979838;28;20073;-82
2022/11/25 11:30:22;;;;;;;7.47;2.03;;;10.60;74.70;;;;;;4983845;28;20029;-83
2022/11/25 11:33:41;;;;;;;13.95;2.10;;;10.60;74.70;;;;;;5002840;28;20130;-88
2022/11/25 11:36:47;;;;;;;12.30;2.20;;;10.70;74.90;;;;;;4987239;28;20412;-84
2022/11/25 11:39:58;;;;;;;10.15;2.10;;;10.70;74.80;;;;;;4989879;28;20050;-85
2022/11/25 11:43:14;;;;;;;12.90;2.97;;;10.70;74.70;;;;;;4978863;28;20057;-82
2022/11/25 11:46:33;;;;;;;10.85;2.53;;;10.80;74.90;;;;;;4993424;28;20136;-91
2022/11/25 11:49:33;;;;;;;13.15;2.67;;;10.90;75.20;;;;;;4999669;28;20052;-91
2022/11/25 11:52:38;;;;;;;16.23;3.05;;;11.00;75.30;;;;;;4989629;28;20111;-83
2022/11/25 11:55:39;;;;;;;12.07;3.83;;;11.10;75.50;;;;;;4985071;28;20409;-92
2022/11/25 11:58:46;;;;;;;11.68;2.22;;;11.20;75.60;;;;;;4978682;28;20061;-87
2022/11/25 12:01:56;;;;;;;8.20;1.80;;;11.20;75.50;;;;;;4977922;28;20509;-92
2022/11/25 12:04:44;;;;;;;14.25;2.75;;;11.30;75.60;;;;;;4990355;28;20128;-84
2022/11/25 12:07:33;;;;;;;11.32;2.40;;;11.30;75.50;;;;;;4987269;28;20105;-79
2022/11/25 12:10:43;;;;;;;16.95;3.85;;;11.40;75.70;;;;;;4984786;28;20069;-80
2022/11/25 12:13:49;;;;;;;15.43;3.95;;;11.50;75.80;;;;;;4980920;28;20105;-80
2022/11/25 12:16:41;;;;;;;12.45;2.25;;;11.70;75.90;;;;;;4985949;28;20142;-82
2022/11/25 12:19:37;;;;;;;16.33;3.05;;;11.80;75.70;;;;;;4982876;28;20041;-88
2022/11/25 12:22:45;;;;;;;12.07;2.90;;;11.90;75.60;;;;;;4984785;28;20088;-91
2022/11/25 12:25:37;;;;;;;21.63;5.55;;;12.00;75.50;;;;;;4988182;28;20088;-84
2022/11/25 12:28:32;;;;;;;17.25;4.22;;;12.10;75.50;;;;;;4988436;28;20077;-81
2022/11/25 12:31:27;;;;;;;15.10;3.35;;;12.20;75.40;;;;;;4986604;28;20612;-80
2022/11/25 12:34:15;;;;;;;15.30;3.00;;;12.40;75.50;;;;;;4970168;28;20054;-82
2022/11/25 12:37:09;;;;;;;11.20;2.58;;;12.50;75.30;;;;;;4986684;28;20044;-85
2022/11/25 12:40:04;;;;;;;14.07;3.90;;;12.70;75.30;;;;;;4984750;28;20040;-89
2022/11/25 12:42:50;;;;;;;16.65;5.15;;;12.80;75.20;;;;;;4981456;28;20105;-86
2022/11/25 12:45:34;;;;;;;14.60;2.88;;;12.80;75.00;;;;;;4978287;28;20033;-86
2022/11/25 12:48:19;;;;;;;14.68;4.13;;;12.90;75.00;;;;;;4975278;28;20058;-85
2022/11/25 12:51:22;;;;;;;15.38;3.30;;;12.90;74.90;;;;;;4985399;28;20078;-84
2022/11/25 12:54:18;;;;;;;17.33;5.53;;;12.90;74.90;;;;;;4993125;28;20062;-82
2022/11/25 12:57:59;;;;;;;12.15;3.00;;;12.90;75.00;;;;;;4987105;28;20356;-89
2022/11/25 13:01:02;;;;;;;18.65;4.78;;;12.90;74.80;;;;;;4946490;28;20466;-86
2022/11/25 13:04:13;;;;;;;14.02;3.92;;;12.90;74.80;;;;;;4983416;28;20393;-85
2022/11/25 13:07:24;;;;;;;16.73;5.72;;;12.90;74.90;;;;;;4986196;28;20057;-86
2022/11/25 13:10:33;;;;;;;17.75;4.10;;;12.90;74.80;;;;;;4988927;28;20045;-87
2022/11/25 13:13:45;;;;;;;9.18;2.65;;;12.90;74.80;;;;;;4981187;28;20576;-87
2022/11/25 13:16:31;;;;;;;13.98;3.53;;;12.90;74.70;;;;;;4970832;28;20049;-85
2022/11/25 13:19:18;;;;;;;13.15;3.60;;;12.80;74.60;;;;;;4982717;28;20088;-82
2022/11/25 13:22:07;;;;;;;13.27;3.05;;;12.90;74.70;;;;;;4977111;28;20120;-81
2022/11/25 13:24:52;;;;;;;16.15;3.50;;;12.90;74.70;;;;;;4986288;28;20093;-80
2022/11/25 13:27:39;;;;;;;14.75;3.92;;;12.80;74.40;;;;;;4985249;28;20049;-81
2022/11/25 13:30:32;;;;;;;13.27;3.75;;;12.80;74.50;;;;;;4984123;28;20475;-81
2022/11/25 13:33:17;;;;;;;15.60;3.33;;;12.80;74.40;;;;;;4986460;28;20045;-81
2022/11/25 13:36:18;;;;;;;11.15;3.22;;;12.80;74.40;;;;;;4973395;28;20053;-83
2022/11/25 13:39:11;;;;;;;13.57;3.88;;;12.80;74.30;;;;;;4978706;28;20049;-82
2022/11/25 13:42:04;;;;;;;21.20;5.45;;;12.80;74.80;;;;;;4975079;28;20159;-81
2022/11/25 13:44:52;;;;;;;12.48;3.30;;;12.80;74.20;;;;;;4985663;28;20426;-82
2022/11/25 13:47:38;;;;;;;14.05;3.17;;;12.80;74.20;;;;;;4973994;28;20171;-82
2022/11/25 13:50:24;;;;;;;12.02;2.67;;;12.80;74.10;;;;;;4985814;28;20097;-79
2022/11/25 13:53:33;;;;;;;11.18;3.20;;;12.80;74.10;;;;;;4985628;28;20042;-78
2022/11/25 13:56:20;;;;;;;16.65;3.40;;;12.70;73.80;;;;;;4984234;28;20173;-81
2022/11/25 13:59:09;;;;;;;16.00;2.92;;;12.80;74.00;;;;;;4996970;28;20057;-95
2022/11/25 14:01:54;;;;;;;15.00;4.32;;;12.70;73.70;;;;;;4994974;28;20607;-83
2022/11/25 14:04:53;;;;;;;18.38;4.28;;;12.70;74.20;;;;;;4980693;28;20290;-82
2022/11/25 14:07:54;;;;;;;9.88;2.75;;;12.80;73.80;;;;;;4982275;28;20088;-80
2022/11/25 14:10:50;;;;;;;10.68;2.67;;;12.70;73.60;;;;;;4985132;28;20438;-84
2022/11/25 14:13:57;;;;;;;13.07;4.53;;;12.70;73.60;;;;;;4979606;28;20125;-81
2022/11/25 14:16:53;;;;;;;9.82;2.95;;;12.70;73.50;;;;;;4985843;28;20354;-83
2022/11/25 14:19:46;;;;;;;16.40;3.95;;;12.70;73.50;;;;;;4973853;28;20061;-85
2022/11/25 14:22:37;;;;;;;14.57;4.38;;;12.70;73.50;;;;;;4973028;28;20042;-93
2022/11/25 14:25:25;;;;;;;17.55;4.25;;;12.70;73.50;;;;;;4984889;28;20498;-94
2022/11/25 14:28:18;;;;;;;8.55;2.53;;;12.70;73.50;;;;;;4987513;28;20074;-82
2022/11/25 14:31:09;;;;;;;;;;;12.60;73.30;;;;;;4969100;28;20093;-90
2022/11/25 14:33:59;;;;;;;14.55;3.70;;;12.60;73.30;;;;;;4981971;28;19960;-87
2022/11/25 14:36:49;;;;;;;17.63;3.88;;;12.60;73.30;;;;;;4977424;28;20464;-92
2022/11/25 14:39:40;;;;;;;13.68;2.95;;;12.60;73.30;;;;;;4985355;28;20450;-84
2022/11/25 14:42:31;;;;;;;14.13;3.25;;;12.60;73.30;;;;;;4992261;28;20498;-89
2022/11/25 14:45:23;;;;;;;10.05;3.00;;;12.60;73.30;;;;;;4979808;28;20443;-91
2022/11/25 14:48:23;;;;;;;6.43;2.53;;;12.50;73.10;;;;;;4986044;28;20193;-90
2022/11/25 14:51:17;;;;;;;17.10;2.80;;;12.50;73.10;;;;;;4981243;28;20564;-85
2022/11/25 14:54:05;;;;;;;12.60;3.30;;;12.50;73.20;;;;;;4987848;28;20045;-84